KLWT

Lewistown Municipal Airport

Lewistown, Montana, USA
METAR KLWT 151554Z AUTO 25017KT 10SM CLR 02/M04 A2982 RMK AO2 PK WND 26026/1538 SLP103 T00171039
Observed Flight Rules
Dec-15 @ 15:54 UTC (11 minutes ago) Visual Flight Rules
Wind Visibility Clouds
250° at 17 knots 10 miles
  • Clear skies
Temperatures Readings
Current 2°C / 36°F
Dewpoint -4°C / 25°F
Humidity 65%
Altimeter 29.82" Hg
Pressure 1010.3 hPa
Elevation 1270
METAR KLWT 151554Z AUTO 25017KT 10SM CLR 02/M04 A2982 RMK AO2 PK WND 26026/1538 SLP103 T00171039
Observed Flight Rules
Dec-15 @ 15:54 UTC
(11 minutes ago)
VFR
Wind Visibility
250° at 17 knots 10 miles
Clouds
  • Clear skies
Temperature Dewpoint
2°C / 36°F -4°C / 25°F
Humidity Altimeter Pressure
65% 29.82" Hg 1010.3 hPa